sensor_id;sensor_type;location;lat;lon;timestamp;temperature;humidity
22450;DHT22;11392;57.390;-2.468;2022-08-16T00:00:55;13.90;99.90
22450;DHT22;11392;57.390;-2.468;2022-08-16T00:03:23;13.90;99.90
22450;DHT22;11392;57.390;-2.468;2022-08-16T00:05:50;13.90;99.90
22450;DHT22;11392;57.390;-2.468;2022-08-16T00:08:23;13.90;99.90
22450;DHT22;11392;57.390;-2.468;2022-08-16T00:11:07;13.90;99.90
22450;DHT22;11392;57.390;-2.468;2022-08-16T00:13:41;13.90;99.90
22450;DHT22;11392;57.390;-2.468;2022-08-16T00:19:46;13.90;99.90
22450;DHT22;11392;57.390;-2.468;2022-08-16T00:22:19;13.90;99.90
22450;DHT22;11392;57.390;-2.468;2022-08-16T00:24:52;13.90;99.90
22450;DHT22;11392;57.390;-2.468;2022-08-16T00:27:21;13.90;99.90
22450;DHT22;11392;57.390;-2.468;2022-08-16T00:29:48;13.90;99.90
22450;DHT22;11392;57.390;-2.468;2022-08-16T00:32:36;13.90;99.90
22450;DHT22;11392;57.390;-2.468;2022-08-16T00:35:05;13.90;99.90
22450;DHT22;11392;57.390;-2.468;2022-08-16T00:37:42;13.90;99.90
22450;DHT22;11392;57.390;-2.468;2022-08-16T00:40:46;13.90;99.90
22450;DHT22;11392;57.390;-2.468;2022-08-16T00:43:28;13.90;99.90
22450;DHT22;11392;57.390;-2.468;2022-08-16T00:49:00;13.90;99.90
22450;DHT22;11392;57.390;-2.468;2022-08-16T00:51:28;13.80;99.90
22450;DHT22;11392;57.390;-2.468;2022-08-16T00:53:55;13.80;99.90
22450;DHT22;11392;57.390;-2.468;2022-08-16T00:56:25;13.70;99.90
22450;DHT22;11392;57.390;-2.468;2022-08-16T00:59:14;13.70;99.90
22450;DHT22;11392;57.390;-2.468;2022-08-16T01:01:43;13.70;99.90
22450;DHT22;11392;57.390;-2.468;2022-08-16T01:04:11;13.70;99.90
22450;DHT22;11392;57.390;-2.468;2022-08-16T01:07:00;13.70;99.90
22450;DHT22;11392;57.390;-2.468;2022-08-16T01:09:30;13.70;99.90
22450;DHT22;11392;57.390;-2.468;2022-08-16T01:12:01;13.60;99.90
22450;DHT22;11392;57.390;-2.468;2022-08-16T01:14:32;13.60;99.90
22450;DHT22;11392;57.390;-2.468;2022-08-16T01:17:01;13.60;99.90
22450;DHT22;11392;57.390;-2.468;2022-08-16T01:19:39;13.60;99.90
22450;DHT22;11392;57.390;-2.468;2022-08-16T01:23:05;13.60;99.90
22450;DHT22;11392;57.390;-2.468;2022-08-16T01:25:21;13.60;99.90
22450;DHT22;11392;57.390;-2.468;2022-08-16T01:28:02;13.70;99.90
22450;DHT22;11392;57.390;-2.468;2022-08-16T01:30:34;13.60;99.90
22450;DHT22;11392;57.390;-2.468;2022-08-16T01:33:06;13.60;99.90
22450;DHT22;11392;57.390;-2.468;2022-08-16T01:35:57;13.60;99.90
22450;DHT22;11392;57.390;-2.468;2022-08-16T01:38:39;13.60;99.90
22450;DHT22;11392;57.390;-2.468;2022-08-16T01:41:19;13.60;99.90
22450;DHT22;11392;57.390;-2.468;2022-08-16T01:43:48;13.60;99.90
22450;DHT22;11392;57.390;-2.468;2022-08-16T01:49:50;13.60;99.90
22450;DHT22;11392;57.390;-2.468;2022-08-16T01:52:13;13.60;99.90
22450;DHT22;11392;57.390;-2.468;2022-08-16T01:54:57;13.60;99.90
22450;DHT22;11392;57.390;-2.468;2022-08-16T01:57:25;13.60;99.90
22450;DHT22;11392;57.390;-2.468;2022-08-16T01:59:52;13.60;99.90
22450;DHT22;11392;57.390;-2.468;2022-08-16T02:02:21;13.60;99.90
22450;DHT22;11392;57.390;-2.468;2022-08-16T02:04:55;13.50;99.90
22450;DHT22;11392;57.390;-2.468;2022-08-16T02:07:23;13.60;99.90
22450;DHT22;11392;57.390;-2.468;2022-08-16T02:09:51;13.60;99.90
22450;DHT22;11392;57.390;-2.468;2022-08-16T02:12:26;13.60;99.90
22450;DHT22;11392;57.390;-2.468;2022-08-16T02:15:15;13.60;99.90
22450;DHT22;11392;57.390;-2.468;2022-08-16T02:17:42;13.50;99.90
22450;DHT22;11392;57.390;-2.468;2022-08-16T02:20:11;13.50;99.90
22450;DHT22;11392;57.390;-2.468;2022-08-16T02:22:38;13.50;99.90
22450;DHT22;11392;57.390;-2.468;2022-08-16T02:25:11;13.50;99.90
22450;DHT22;11392;57.390;-2.468;2022-08-16T02:27:42;13.50;99.90
22450;DHT22;11392;57.390;-2.468;2022-08-16T02:30:16;13.50;99.90
22450;DHT22;11392;57.390;-2.468;2022-08-16T02:33:04;13.50;99.90
22450;DHT22;11392;57.390;-2.468;2022-08-16T02:35:33;13.50;99.90
22450;DHT22;11392;57.390;-2.468;2022-08-16T02:38:19;13.40;99.90
22450;DHT22;11392;57.390;-2.468;2022-08-16T02:40:47;13.40;99.90
22450;DHT22;11392;57.390;-2.468;2022-08-16T02:43:14;13.40;99.90
22450;DHT22;11392;57.390;-2.468;2022-08-16T02:45:41;13.30;99.90
22450;DHT22;11392;57.390;-2.468;2022-08-16T02:48:09;13.30;99.90
22450;DHT22;11392;57.390;-2.468;2022-08-16T02:50:57;13.30;99.90
22450;DHT22;11392;57.390;-2.468;2022-08-16T02:53:39;13.30;99.90
22450;DHT22;11392;57.390;-2.468;2022-08-16T02:56:09;13.30;99.90
22450;DHT22;11392;57.390;-2.468;2022-08-16T02:58:41;13.30;99.90
22450;DHT22;11392;57.390;-2.468;2022-08-16T03:01:11;13.30;99.90
22450;DHT22;11392;57.390;-2.468;2022-08-16T03:03:54;13.30;99.90
22450;DHT22;11392;57.390;-2.468;2022-08-16T03:06:41;13.20;99.90
22450;DHT22;11392;57.390;-2.468;2022-08-16T03:09:09;13.30;99.90
22450;DHT22;11392;57.390;-2.468;2022-08-16T03:11:42;13.20;99.90
22450;DHT22;11392;57.390;-2.468;2022-08-16T03:14:11;13.20;99.90
22450;DHT22;11392;57.390;-2.468;2022-08-16T03:16:46;13.20;99.90
22450;DHT22;11392;57.390;-2.468;2022-08-16T03:19:31;13.20;99.90
22450;DHT22;11392;57.390;-2.468;2022-08-16T03:22:20;13.20;99.90
22450;DHT22;11392;57.390;-2.468;2022-08-16T03:24:59;13.20;99.90
22450;DHT22;11392;57.390;-2.468;2022-08-16T03:27:29;13.20;99.90
22450;DHT22;11392;57.390;-2.468;2022-08-16T03:30:00;13.20;99.90
22450;DHT22;11392;57.390;-2.468;2022-08-16T03:32:43;13.20;99.90
22450;DHT22;11392;57.390;-2.468;2022-08-16T03:35:14;13.10;99.90
22450;DHT22;11392;57.390;-2.468;2022-08-16T03:37:44;13.10;99.90
22450;DHT22;11392;57.390;-2.468;2022-08-16T03:40:28;13.10;99.90
22450;DHT22;11392;57.390;-2.468;2022-08-16T03:42:59;13.20;99.90
22450;DHT22;11392;57.390;-2.468;2022-08-16T03:45:46;13.20;99.90
22450;DHT22;11392;57.390;-2.468;2022-08-16T03:48:13;13.10;99.90
22450;DHT22;11392;57.390;-2.468;2022-08-16T03:50:45;13.10;99.90
22450;DHT22;11392;57.390;-2.468;2022-08-16T03:53:26;13.10;99.90
22450;DHT22;11392;57.390;-2.468;2022-08-16T03:56:04;13.10;99.90
22450;DHT22;11392;57.390;-2.468;2022-08-16T03:58:45;13.10;99.90
22450;DHT22;11392;57.390;-2.468;2022-08-16T04:01:16;13.10;99.90
22450;DHT22;11392;57.390;-2.468;2022-08-16T04:03:43;13.10;99.90
22450;DHT22;11392;57.390;-2.468;2022-08-16T04:06:10;13.10;99.90
22450;DHT22;11392;57.390;-2.468;2022-08-16T04:08:37;13.10;99.90
22450;DHT22;11392;57.390;-2.468;2022-08-16T04:11:05;13.10;99.90
22450;DHT22;11392;57.390;-2.468;2022-08-16T04:13:33;13.10;99.90
22450;DHT22;11392;57.390;-2.468;2022-08-16T04:16:20;13.00;99.90
22450;DHT22;11392;57.390;-2.468;2022-08-16T04:18:55;13.10;99.90
22450;DHT22;11392;57.390;-2.468;2022-08-16T04:21:34;13.10;99.90
22450;DHT22;11392;57.390;-2.468;2022-08-16T04:24:13;13.10;99.90
22450;DHT22;11392;57.390;-2.468;2022-08-16T04:26:40;13.10;99.90
22450;DHT22;11392;57.390;-2.468;2022-08-16T04:29:13;13.00;99.90
22450;DHT22;11392;57.390;-2.468;2022-08-16T04:31:47;13.10;99.90
22450;DHT22;11392;57.390;-2.468;2022-08-16T04:34:24;13.00;99.90
22450;DHT22;11392;57.390;-2.468;2022-08-16T04:36:53;13.00;99.90
22450;DHT22;11392;57.390;-2.468;2022-08-16T04:39:20;13.00;99.90
22450;DHT22;11392;57.390;-2.468;2022-08-16T04:41:50;13.10;99.90
22450;DHT22;11392;57.390;-2.468;2022-08-16T04:44:23;13.00;99.90
22450;DHT22;11392;57.390;-2.468;2022-08-16T04:46:58;13.10;99.90
22450;DHT22;11392;57.390;-2.468;2022-08-16T04:49:29;13.00;99.90
22450;DHT22;11392;57.390;-2.468;2022-08-16T04:52:12;13.00;99.90
22450;DHT22;11392;57.390;-2.468;2022-08-16T04:54:59;13.00;99.90
22450;DHT22;11392;57.390;-2.468;2022-08-16T04:57:26;13.00;99.90
22450;DHT22;11392;57.390;-2.468;2022-08-16T04:59:55;13.00;99.90
22450;DHT22;11392;57.390;-2.468;2022-08-16T05:02:23;13.00;99.90
22450;DHT22;11392;57.390;-2.468;2022-08-16T05:05:09;13.00;99.90
22450;DHT22;11392;57.390;-2.468;2022-08-16T05:07:44;13.10;99.90
22450;DHT22;11392;57.390;-2.468;2022-08-16T05:10:24;13.10;99.90
22450;DHT22;11392;57.390;-2.468;2022-08-16T05:12:51;13.10;99.90
22450;DHT22;11392;57.390;-2.468;2022-08-16T05:15:19;13.10;99.90
22450;DHT22;11392;57.390;-2.468;2022-08-16T05:17:47;13.10;99.90
22450;DHT22;11392;57.390;-2.468;2022-08-16T05:20:26;13.10;99.90
22450;DHT22;11392;57.390;-2.468;2022-08-16T05:23:13;13.10;99.90
22450;DHT22;11392;57.390;-2.468;2022-08-16T05:25:43;13.10;99.90
22450;DHT22;11392;57.390;-2.468;2022-08-16T05:28:15;13.10;99.90
22450;DHT22;11392;57.390;-2.468;2022-08-16T05:30:42;13.10;99.90
22450;DHT22;11392;57.390;-2.468;2022-08-16T05:33:10;13.10;99.90
22450;DHT22;11392;57.390;-2.468;2022-08-16T05:35:43;13.10;99.90
22450;DHT22;11392;57.390;-2.468;2022-08-16T05:38:21;13.10;99.90
22450;DHT22;11392;57.390;-2.468;2022-08-16T05:41:05;13.10;99.90
22450;DHT22;11392;57.390;-2.468;2022-08-16T05:43:35;13.10;99.90
22450;DHT22;11392;57.390;-2.468;2022-08-16T05:46:14;13.10;99.90
22450;DHT22;11392;57.390;-2.468;2022-08-16T05:48:58;13.10;99.90
22450;DHT22;11392;57.390;-2.468;2022-08-16T05:51:38;13.10;99.90
22450;DHT22;11392;57.390;-2.468;2022-08-16T05:54:10;13.10;99.90
22450;DHT22;11392;57.390;-2.468;2022-08-16T05:56:40;13.10;99.90
22450;DHT22;11392;57.390;-2.468;2022-08-16T05:59:09;13.10;99.90
22450;DHT22;11392;57.390;-2.468;2022-08-16T06:01:37;13.00;99.90
22450;DHT22;11392;57.390;-2.468;2022-08-16T06:04:08;13.00;99.90
22450;DHT22;11392;57.390;-2.468;2022-08-16T06:06:41;13.00;99.90
22450;DHT22;11392;57.390;-2.468;2022-08-16T06:09:22;13.00;99.90
22450;DHT22;11392;57.390;-2.468;2022-08-16T06:11:51;13.00;99.90
22450;DHT22;11392;57.390;-2.468;2022-08-16T06:14:18;13.00;99.90
22450;DHT22;11392;57.390;-2.468;2022-08-16T06:16:46;13.00;99.90
22450;DHT22;11392;57.390;-2.468;2022-08-16T06:19:17;13.00;99.90
22450;DHT22;11392;57.390;-2.468;2022-08-16T06:21:45;13.10;99.90
22450;DHT22;11392;57.390;-2.468;2022-08-16T06:24:21;13.10;99.90
22450;DHT22;11392;57.390;-2.468;2022-08-16T06:27:08;13.10;99.90
22450;DHT22;11392;57.390;-2.468;2022-08-16T06:29:35;13.10;99.90
22450;DHT22;11392;57.390;-2.468;2022-08-16T06:32:03;13.10;99.90
22450;DHT22;11392;57.390;-2.468;2022-08-16T06:34:32;13.10;99.90
22450;DHT22;11392;57.390;-2.468;2022-08-16T06:37:20;13.10;99.90
22450;DHT22;11392;57.390;-2.468;2022-08-16T06:39:46;13.10;99.90
22450;DHT22;11392;57.390;-2.468;2022-08-16T06:42:16;13.10;99.90
22450;DHT22;11392;57.390;-2.468;2022-08-16T06:44:45;13.20;99.90
22450;DHT22;11392;57.390;-2.468;2022-08-16T06:47:13;13.10;99.90
22450;DHT22;11392;57.390;-2.468;2022-08-16T06:49:43;13.20;99.90
22450;DHT22;11392;57.390;-2.468;2022-08-16T06:52:20;13.20;99.90
22450;DHT22;11392;57.390;-2.468;2022-08-16T06:55:09;13.20;99.90
22450;DHT22;11392;57.390;-2.468;2022-08-16T06:57:39;13.20;99.90
22450;DHT22;11392;57.390;-2.468;2022-08-16T07:00:09;13.20;99.90
22450;DHT22;11392;57.390;-2.468;2022-08-16T07:02:50;13.30;99.90
22450;DHT22;11392;57.390;-2.468;2022-08-16T07:05:20;13.20;99.90
22450;DHT22;11392;57.390;-2.468;2022-08-16T07:08:07;13.20;99.90
22450;DHT22;11392;57.390;-2.468;2022-08-16T07:10:37;13.20;99.90
22450;DHT22;11392;57.390;-2.468;2022-08-16T07:13:07;13.20;99.90
22450;DHT22;11392;57.390;-2.468;2022-08-16T07:15:40;13.20;99.90
22450;DHT22;11392;57.390;-2.468;2022-08-16T07:18:19;13.30;99.90
22450;DHT22;11392;57.390;-2.468;2022-08-16T07:20:50;13.20;99.90
22450;DHT22;11392;57.390;-2.468;2022-08-16T07:23:20;13.20;99.90
22450;DHT22;11392;57.390;-2.468;2022-08-16T07:26:07;13.20;99.90
22450;DHT22;11392;57.390;-2.468;2022-08-16T07:28:36;13.20;99.90
22450;DHT22;11392;57.390;-2.468;2022-08-16T07:31:03;13.20;99.90
22450;DHT22;11392;57.390;-2.468;2022-08-16T07:33:39;13.20;99.90
22450;DHT22;11392;57.390;-2.468;2022-08-16T07:36:20;13.20;99.90
22450;DHT22;11392;57.390;-2.468;2022-08-16T07:38:49;13.20;99.90
22450;DHT22;11392;57.390;-2.468;2022-08-16T07:41:16;13.30;99.90
22450;DHT22;11392;57.390;-2.468;2022-08-16T07:43:45;13.30;99.90
22450;DHT22;11392;57.390;-2.468;2022-08-16T07:46:13;13.30;99.90
22450;DHT22;11392;57.390;-2.468;2022-08-16T07:49:01;13.30;99.90
22450;DHT22;11392;57.390;-2.468;2022-08-16T07:51:34;13.20;99.90
22450;DHT22;11392;57.390;-2.468;2022-08-16T07:54:07;13.30;99.90
22450;DHT22;11392;57.390;-2.468;2022-08-16T07:56:36;13.30;99.90
22450;DHT22;11392;57.390;-2.468;2022-08-16T07:59:05;13.30;99.90
22450;DHT22;11392;57.390;-2.468;2022-08-16T08:01:33;13.30;99.90
22450;DHT22;11392;57.390;-2.468;2022-08-16T08:04:00;13.30;99.90
22450;DHT22;11392;57.390;-2.468;2022-08-16T08:06:30;13.30;99.90
22450;DHT22;11392;57.390;-2.468;2022-08-16T08:08:59;13.30;99.90
22450;DHT22;11392;57.390;-2.468;2022-08-16T08:11:27;13.30;99.90
22450;DHT22;11392;57.390;-2.468;2022-08-16T08:13:56;13.30;99.90
22450;DHT22;11392;57.390;-2.468;2022-08-16T08:16:31;13.30;99.90
22450;DHT22;11392;57.390;-2.468;2022-08-16T08:18:59;13.40;99.90
22450;DHT22;11392;57.390;-2.468;2022-08-16T08:21:30;13.30;99.90
22450;DHT22;11392;57.390;-2.468;2022-08-16T08:24:18;13.30;99.90
22450;DHT22;11392;57.390;-2.468;2022-08-16T08:26:45;13.40;99.90
22450;DHT22;11392;57.390;-2.468;2022-08-16T08:29:17;13.40;99.90
22450;DHT22;11392;57.390;-2.468;2022-08-16T08:31:51;13.40;99.90
22450;DHT22;11392;57.390;-2.468;2022-08-16T08:34:20;13.40;99.90
22450;DHT22;11392;57.390;-2.468;2022-08-16T08:36:49;13.40;99.90
22450;DHT22;11392;57.390;-2.468;2022-08-16T08:39:20;13.50;99.90
22450;DHT22;11392;57.390;-2.468;2022-08-16T08:41:48;13.40;99.90
22450;DHT22;11392;57.390;-2.468;2022-08-16T08:44:17;13.40;99.90
22450;DHT22;11392;57.390;-2.468;2022-08-16T08:47:01;13.40;99.90
22450;DHT22;11392;57.390;-2.468;2022-08-16T08:49:37;13.40;99.90
22450;DHT22;11392;57.390;-2.468;2022-08-16T08:52:16;13.40;99.90
22450;DHT22;11392;57.390;-2.468;2022-08-16T08:55:04;13.40;99.90
22450;DHT22;11392;57.390;-2.468;2022-08-16T08:57:38;13.40;99.90
22450;DHT22;11392;57.390;-2.468;2022-08-16T09:00:07;13.40;99.90
22450;DHT22;11392;57.390;-2.468;2022-08-16T09:02:41;13.40;99.90
22450;DHT22;11392;57.390;-2.468;2022-08-16T09:05:14;13.50;99.90
22450;DHT22;11392;57.390;-2.468;2022-08-16T09:07:43;13.50;99.90
22450;DHT22;11392;57.390;-2.468;2022-08-16T09:10:30;13.50;99.90
22450;DHT22;11392;57.390;-2.468;2022-08-16T09:13:05;13.60;99.90
22450;DHT22;11392;57.390;-2.468;2022-08-16T09:15:36;13.50;99.90
22450;DHT22;11392;57.390;-2.468;2022-08-16T09:18:04;13.60;99.90
22450;DHT22;11392;57.390;-2.468;2022-08-16T09:20:52;13.50;99.90
22450;DHT22;11392;57.390;-2.468;2022-08-16T09:23:27;13.60;99.90
22450;DHT22;11392;57.390;-2.468;2022-08-16T09:25:54;13.60;99.90
22450;DHT22;11392;57.390;-2.468;2022-08-16T09:28:21;13.60;99.90
22450;DHT22;11392;57.390;-2.468;2022-08-16T09:31:08;13.60;99.90
22450;DHT22;11392;57.390;-2.468;2022-08-16T09:33:37;13.60;99.90
22450;DHT22;11392;57.390;-2.468;2022-08-16T09:36:05;13.60;99.90
22450;DHT22;11392;57.390;-2.468;2022-08-16T09:38:55;13.60;99.90
22450;DHT22;11392;57.390;-2.468;2022-08-16T09:41:26;13.70;99.90
22450;DHT22;11392;57.390;-2.468;2022-08-16T09:43:54;13.70;99.90
22450;DHT22;11392;57.390;-2.468;2022-08-16T09:46:27;13.70;99.90
22450;DHT22;11392;57.390;-2.468;2022-08-16T09:49:14;13.70;99.90
22450;DHT22;11392;57.390;-2.468;2022-08-16T09:51:46;13.70;99.90
22450;DHT22;11392;57.390;-2.468;2022-08-16T09:54:15;13.60;99.90
22450;DHT22;11392;57.390;-2.468;2022-08-16T09:56:47;13.60;99.90
22450;DHT22;11392;57.390;-2.468;2022-08-16T09:59:19;13.60;99.90
22450;DHT22;11392;57.390;-2.468;2022-08-16T10:01:48;13.60;99.90
22450;DHT22;11392;57.390;-2.468;2022-08-16T10:04:15;13.60;99.90
22450;DHT22;11392;57.390;-2.468;2022-08-16T10:06:58;13.50;99.90
22450;DHT22;11392;57.390;-2.468;2022-08-16T10:09:30;13.50;99.90
22450;DHT22;11392;57.390;-2.468;2022-08-16T10:12:17;13.50;99.90
22450;DHT22;11392;57.390;-2.468;2022-08-16T10:15:09;13.50;99.90
22450;DHT22;11392;57.390;-2.468;2022-08-16T10:17:44;13.50;99.90
22450;DHT22;11392;57.390;-2.468;2022-08-16T10:20:30;13.50;99.90
22450;DHT22;11392;57.390;-2.468;2022-08-16T10:23:00;13.50;99.90
22450;DHT22;11392;57.390;-2.468;2022-08-16T10:25:43;13.50;99.90
22450;DHT22;11392;57.390;-2.468;2022-08-16T10:28:31;13.50;99.90
22450;DHT22;11392;57.390;-2.468;2022-08-16T10:31:06;13.50;99.90
22450;DHT22;11392;57.390;-2.468;2022-08-16T10:33:37;13.60;99.90
22450;DHT22;11392;57.390;-2.468;2022-08-16T10:36:10;13.60;99.90
22450;DHT22;11392;57.390;-2.468;2022-08-16T10:38:58;13.60;99.90
22450;DHT22;11392;57.390;-2.468;2022-08-16T10:41:25;13.60;99.90
22450;DHT22;11392;57.390;-2.468;2022-08-16T10:43:52;13.50;99.90
22450;DHT22;11392;57.390;-2.468;2022-08-16T10:46:20;13.50;99.90
22450;DHT22;11392;57.390;-2.468;2022-08-16T10:49:09;13.50;99.90
22450;DHT22;11392;57.390;-2.468;2022-08-16T10:51:37;13.50;99.90
22450;DHT22;11392;57.390;-2.468;2022-08-16T10:54:25;13.50;99.90
22450;DHT22;11392;57.390;-2.468;2022-08-16T10:56:57;13.50;99.90
22450;DHT22;11392;57.390;-2.468;2022-08-16T10:59:25;13.50;99.90
22450;DHT22;11392;57.390;-2.468;2022-08-16T11:02:12;13.40;99.90
22450;DHT22;11392;57.390;-2.468;2022-08-16T11:05:00;13.40;99.90
22450;DHT22;11392;57.390;-2.468;2022-08-16T11:07:32;13.40;99.90
22450;DHT22;11392;57.390;-2.468;2022-08-16T11:10:26;13.40;99.90
22450;DHT22;11392;57.390;-2.468;2022-08-16T11:13:23;13.50;99.90
22450;DHT22;11392;57.390;-2.468;2022-08-16T11:16:11;13.40;99.90
22450;DHT22;11392;57.390;-2.468;2022-08-16T11:18:58;13.40;99.90
22450;DHT22;11392;57.390;-2.468;2022-08-16T11:21:33;13.40;99.90
22450;DHT22;11392;57.390;-2.468;2022-08-16T11:24:22;13.50;99.90
22450;DHT22;11392;57.390;-2.468;2022-08-16T11:27:18;13.50;99.90
22450;DHT22;11392;57.390;-2.468;2022-08-16T11:29:53;13.50;99.90
22450;DHT22;11392;57.390;-2.468;2022-08-16T11:32:22;13.60;99.90
22450;DHT22;11392;57.390;-2.468;2022-08-16T11:34:59;13.60;99.90
22450;DHT22;11392;57.390;-2.468;2022-08-16T11:37:45;13.60;99.90
22450;DHT22;11392;57.390;-2.468;2022-08-16T11:40:46;13.60;99.90
22450;DHT22;11392;57.390;-2.468;2022-08-16T11:43:22;13.60;99.90
22450;DHT22;11392;57.390;-2.468;2022-08-16T11:45:53;13.60;99.90
22450;DHT22;11392;57.390;-2.468;2022-08-16T11:48:26;13.60;99.90
22450;DHT22;11392;57.390;-2.468;2022-08-16T11:50:54;13.70;99.90
22450;DHT22;11392;57.390;-2.468;2022-08-16T11:53:22;13.70;99.90
22450;DHT22;11392;57.390;-2.468;2022-08-16T11:55:50;13.70;99.90
22450;DHT22;11392;57.390;-2.468;2022-08-16T11:58:22;13.70;99.90
22450;DHT22;11392;57.390;-2.468;2022-08-16T12:00:51;13.70;99.90
22450;DHT22;11392;57.390;-2.468;2022-08-16T12:03:21;13.70;99.90
22450;DHT22;11392;57.390;-2.468;2022-08-16T12:06:12;13.70;99.90
22450;DHT22;11392;57.390;-2.468;2022-08-16T12:08:56;13.70;99.90
22450;DHT22;11392;57.390;-2.468;2022-08-16T12:11:28;13.60;99.90
22450;DHT22;11392;57.390;-2.468;2022-08-16T12:13:58;13.60;99.90
22450;DHT22;11392;57.390;-2.468;2022-08-16T12:16:26;13.60;99.90
22450;DHT22;11392;57.390;-2.468;2022-08-16T12:19:01;13.60;99.90
22450;DHT22;11392;57.390;-2.468;2022-08-16T12:21:30;13.50;99.90
22450;DHT22;11392;57.390;-2.468;2022-08-16T12:24:17;13.50;99.90
22450;DHT22;11392;57.390;-2.468;2022-08-16T12:26:45;13.40;99.90
22450;DHT22;11392;57.390;-2.468;2022-08-16T12:29:14;13.40;99.90
22450;DHT22;11392;57.390;-2.468;2022-08-16T12:31:42;13.30;99.90
22450;DHT22;11392;57.390;-2.468;2022-08-16T12:34:29;13.30;99.90
22450;DHT22;11392;57.390;-2.468;2022-08-16T12:36:57;13.30;99.90
22450;DHT22;11392;57.390;-2.468;2022-08-16T12:39:25;13.20;99.90
22450;DHT22;11392;57.390;-2.468;2022-08-16T12:41:55;13.20;99.90
22450;DHT22;11392;57.390;-2.468;2022-08-16T12:44:23;13.20;99.90
22450;DHT22;11392;57.390;-2.468;2022-08-16T12:46:51;13.20;99.90
22450;DHT22;11392;57.390;-2.468;2022-08-16T12:49:40;13.10;99.90
22450;DHT22;11392;57.390;-2.468;2022-08-16T12:52:08;13.20;99.90
22450;DHT22;11392;57.390;-2.468;2022-08-16T12:54:55;13.10;99.90
22450;DHT22;11392;57.390;-2.468;2022-08-16T12:57:23;13.00;99.90
22450;DHT22;11392;57.390;-2.468;2022-08-16T13:00:05;13.00;99.90
22450;DHT22;11392;57.390;-2.468;2022-08-16T13:02:33;13.00;99.90
22450;DHT22;11392;57.390;-2.468;2022-08-16T13:05:03;13.00;99.90
22450;DHT22;11392;57.390;-2.468;2022-08-16T13:07:33;13.00;99.90
22450;DHT22;11392;57.390;-2.468;2022-08-16T13:10:09;13.00;99.90
22450;DHT22;11392;57.390;-2.468;2022-08-16T13:12:59;12.90;99.90
22450;DHT22;11392;57.390;-2.468;2022-08-16T13:15:27;12.80;99.90
22450;DHT22;11392;57.390;-2.468;2022-08-16T13:17:55;12.90;99.90
22450;DHT22;11392;57.390;-2.468;2022-08-16T13:20:25;12.90;99.90
22450;DHT22;11392;57.390;-2.468;2022-08-16T13:23:03;12.90;99.90
22450;DHT22;11392;57.390;-2.468;2022-08-16T13:25:33;12.90;99.90
22450;DHT22;11392;57.390;-2.468;2022-08-16T13:28:00;12.90;99.90
22450;DHT22;11392;57.390;-2.468;2022-08-16T13:30:33;12.90;99.90
22450;DHT22;11392;57.390;-2.468;2022-08-16T13:33:11;12.90;99.90
22450;DHT22;11392;57.390;-2.468;2022-08-16T13:35:46;12.90;99.90
22450;DHT22;11392;57.390;-2.468;2022-08-16T13:38:22;13.00;99.90
22450;DHT22;11392;57.390;-2.468;2022-08-16T13:40:54;13.00;99.90
22450;DHT22;11392;57.390;-2.468;2022-08-16T13:43:24;12.90;99.90
22450;DHT22;11392;57.390;-2.468;2022-08-16T13:45:53;12.90;99.90
22450;DHT22;11392;57.390;-2.468;2022-08-16T13:48:24;12.90;99.90
22450;DHT22;11392;57.390;-2.468;2022-08-16T13:51:09;12.90;99.90
22450;DHT22;11392;57.390;-2.468;2022-08-16T13:53:45;12.90;99.90
22450;DHT22;11392;57.390;-2.468;2022-08-16T13:56:26;12.90;99.90
22450;DHT22;11392;57.390;-2.468;2022-08-16T13:59:09;12.90;99.90
22450;DHT22;11392;57.390;-2.468;2022-08-16T14:01:46;12.90;99.90
22450;DHT22;11392;57.390;-2.468;2022-08-16T14:04:29;12.90;99.90
22450;DHT22;11392;57.390;-2.468;2022-08-16T14:06:58;12.90;99.90
22450;DHT22;11392;57.390;-2.468;2022-08-16T14:09:26;12.90;99.90
22450;DHT22;11392;57.390;-2.468;2022-08-16T14:11:58;12.80;99.90
22450;DHT22;11392;57.390;-2.468;2022-08-16T14:14:27;12.80;99.90
22450;DHT22;11392;57.390;-2.468;2022-08-16T14:16:57;12.80;99.90
22450;DHT22;11392;57.390;-2.468;2022-08-16T14:19:25;12.70;99.90
22450;DHT22;11392;57.390;-2.468;2022-08-16T14:21:57;12.70;99.90
22450;DHT22;11392;57.390;-2.468;2022-08-16T14:24:45;12.70;99.90
22450;DHT22;11392;57.390;-2.468;2022-08-16T14:27:19;12.70;99.90
22450;DHT22;11392;57.390;-2.468;2022-08-16T14:29:48;12.70;99.90
22450;DHT22;11392;57.390;-2.468;2022-08-16T14:32:21;12.70;99.90
22450;DHT22;11392;57.390;-2.468;2022-08-16T14:35:06;12.70;99.90
22450;DHT22;11392;57.390;-2.468;2022-08-16T14:37:35;12.70;99.90
22450;DHT22;11392;57.390;-2.468;2022-08-16T14:40:08;12.80;99.90
22450;DHT22;11392;57.390;-2.468;2022-08-16T14:42:37;12.80;99.90
22450;DHT22;11392;57.390;-2.468;2022-08-16T14:45:07;12.80;99.90
22450;DHT22;11392;57.390;-2.468;2022-08-16T14:47:35;12.80;99.90
22450;DHT22;11392;57.390;-2.468;2022-08-16T14:50:07;12.90;99.90
22450;DHT22;11392;57.390;-2.468;2022-08-16T14:52:40;12.90;99.90
22450;DHT22;11392;57.390;-2.468;2022-08-16T14:55:24;12.90;99.90
22450;DHT22;11392;57.390;-2.468;2022-08-16T14:57:52;12.80;99.90
22450;DHT22;11392;57.390;-2.468;2022-08-16T15:00:21;12.90;99.90
22450;DHT22;11392;57.390;-2.468;2022-08-16T15:03:00;12.90;99.90
22450;DHT22;11392;57.390;-2.468;2022-08-16T15:05:28;12.90;99.90
22450;DHT22;11392;57.390;-2.468;2022-08-16T15:08:00;12.80;99.90
22450;DHT22;11392;57.390;-2.468;2022-08-16T15:10:27;12.90;99.90
22450;DHT22;11392;57.390;-2.468;2022-08-16T15:12:57;12.80;99.90
22450;DHT22;11392;57.390;-2.468;2022-08-16T15:15:28;12.90;99.90
22450;DHT22;11392;57.390;-2.468;2022-08-16T15:17:56;12.90;99.90
22450;DHT22;11392;57.390;-2.468;2022-08-16T15:20:26;12.90;99.90
22450;DHT22;11392;57.390;-2.468;2022-08-16T15:22:57;13.00;99.90
22450;DHT22;11392;57.390;-2.468;2022-08-16T15:25:44;13.10;99.90
22450;DHT22;11392;57.390;-2.468;2022-08-16T15:28:30;13.10;99.90
22450;DHT22;11392;57.390;-2.468;2022-08-16T15:31:03;13.10;99.90
22450;DHT22;11392;57.390;-2.468;2022-08-16T15:33:38;13.20;99.90
22450;DHT22;11392;57.390;-2.468;2022-08-16T15:36:12;13.20;99.90
22450;DHT22;11392;57.390;-2.468;2022-08-16T15:38:47;13.20;99.90
22450;DHT22;11392;57.390;-2.468;2022-08-16T15:44:18;13.20;99.90
22450;DHT22;11392;57.390;-2.468;2022-08-16T15:46:50;13.20;99.90
22450;DHT22;11392;57.390;-2.468;2022-08-16T15:49:23;13.20;99.90
22450;DHT22;11392;57.390;-2.468;2022-08-16T15:54:41;13.10;99.90
22450;DHT22;11392;57.390;-2.468;2022-08-16T15:57:22;13.10;99.90
22450;DHT22;11392;57.390;-2.468;2022-08-16T15:59:50;13.00;99.90
22450;DHT22;11392;57.390;-2.468;2022-08-16T16:02:23;13.00;99.90
22450;DHT22;11392;57.390;-2.468;2022-08-16T16:05:02;13.00;99.90
22450;DHT22;11392;57.390;-2.468;2022-08-16T16:07:31;13.00;99.90
22450;DHT22;11392;57.390;-2.468;2022-08-16T16:10:03;13.00;99.90
22450;DHT22;11392;57.390;-2.468;2022-08-16T16:12:30;12.90;99.90
22450;DHT22;11392;57.390;-2.468;2022-08-16T16:15:19;12.80;99.90